Time;durP1;ratioP1;P1;durP2;ratioP2;P2;SDS_P1;SDS_P2;PMS_P1;PMS_P2;Temp;Humidity;BMP_temperature;BMP_pressure;BME280_temperature;BME280_humidity;BME280_pressure;Samples;Min_cycle;Max_cycle;Signal;HPM_P1;HPM_P2
2022/08/15 08:14:04;;;;;;;12.75;8.75;;;;;;;22.91;100.00;98923.84;1562545;87;21286;-77
2022/08/15 08:16:40;;;;;;;13.53;8.28;;;;;;;22.78;100.00;98914.30;1678807;84;21597;-77
2022/08/15 08:19:17;;;;;;;10.10;7.78;;;;;;;22.92;100.00;98896.70;1723197;81;21108;-77
2022/08/15 08:21:59;;;;;;;11.05;7.92;;;;;;;23.34;100.00;98892.14;1817814;77;21502;-76
2022/08/15 08:25:03;;;;;;;15.70;9.18;;;;;;;23.56;100.00;98914.03;1869850;75;21049;-76
2022/08/15 08:28:06;;;;;;;12.28;8.48;;;;;;;23.52;100.00;98939.66;1868791;76;21604;-77
2022/08/15 08:30:41;;;;;;;12.58;8.05;;;;;;;23.78;100.00;98959.01;1864729;76;21080;-76
2022/08/15 08:39:24;;;;;;;14.65;8.63;;;;;;;23.93;100.00;99016.43;1727945;82;21279;-77
2022/08/15 08:42:01;;;;;;;9.43;7.58;;;;;;;23.99;100.00;99022.51;1759185;81;21235;-76
2022/08/15 08:45:10;;;;;;;10.80;7.97;;;;;;;24.03;100.00;99038.82;1779165;78;21123;-77
2022/08/15 08:51:29;;;;;;;11.00;7.22;;;;;;;23.67;100.00;99060.80;1709610;81;21204;-79
2022/08/15 08:53:48;;;;;;;10.48;7.67;;;;;;;23.41;100.00;99062.37;1865635;76;21120;-76
2022/08/15 08:56:47;;;;;;;;;;;;;;;;;;;;;
2022/08/15 10:58:09;;;;;;;;;;;;;;;;;;;;;
2022/08/15 11:01:17;;;;;;;;;;;;;;;;;;;;;
2022/08/15 11:24:20;;;;;;;9.80;4.78;;;;;;;25.57;100.00;99237.00;1812200;78;21234;-75
2022/08/15 11:26:49;;;;;;;8.95;4.50;;;;;;;25.70;100.00;99211.39;1815707;76;21071;-75
2022/08/15 11:29:24;;;;;;;6.37;3.95;;;;;;;25.88;100.00;99200.25;1871571;76;21205;-75
2022/08/15 11:32:04;;;;;;;11.88;4.22;;;;;;;25.87;100.00;99200.75;1839132;77;21163;-75
2022/08/15 11:34:39;;;;;;;9.80;4.65;;;;;;;25.85;100.00;99213.66;1855618;77;21127;-75
2022/08/15 11:37:24;;;;;;;8.03;4.78;;;;;;;25.98;100.00;99213.45;1856491;77;21060;-76
2022/08/15 11:40:04;;;;;;;12.55;5.72;;;;;;;25.90;100.00;99225.95;1871347;75;21141;-75
2022/08/15 11:42:49;;;;;;;;;;;;;;;;;;;;;
2022/08/15 11:45:28;;;;;;;11.65;4.50;;;;;;;25.03;100.00;99180.04;1863915;76;21064;-75
2022/08/15 11:47:58;;;;;;;10.45;4.60;;;;;;;25.53;100.00;99186.48;1836613;77;21071;-76
2022/08/15 11:50:37;;;;;;;9.45;4.70;;;;;;;25.72;100.00;99192.85;1838059;77;21040;-75
2022/08/15 11:53:10;;;;;;;11.57;4.75;;;;;;;25.76;100.00;99211.34;1890016;74;21049;-76
2022/08/15 11:55:41;;;;;;;10.63;4.50;;;;;;;25.50;100.00;99253.30;1890936;75;21050;-76
2022/08/15 11:58:17;;;;;;;6.67;3.77;;;;;;;25.36;100.00;99237.36;1878214;76;21470;-75
2022/08/15 12:00:52;;;;;;;11.08;4.85;;;;;;;25.66;100.00;99221.81;1879043;75;21020;-75
2022/08/15 12:03:26;;;;;;;4.92;3.40;;;;;;;25.82;100.00;99247.64;1889039;75;21072;-75
2022/08/15 12:06:00;;;;;;;10.65;4.85;;;;;;;25.82;100.00;99229.72;1890661;76;21114;-75
2022/08/15 12:08:31;;;;;;;8.50;4.58;;;;;;;25.85;100.00;99236.02;1889980;75;21026;-75
2022/08/15 12:11:21;;;;;;;7.25;4.95;;;;;;;25.52;100.00;99229.52;1889248;74;21047;-76
2022/08/15 12:13:58;;;;;;;8.18;4.53;;;;;;;25.16;100.00;99231.11;1855456;77;21190;-76
2022/08/15 12:16:58;;;;;;;;;;;;;;;;;;;;;
2022/08/15 12:19:08;;;;;;;10.20;5.62;;;;;;;25.15;100.00;99238.64;1857359;76;21551;-76
2022/08/15 12:21:46;;;;;;;;;;;;;;;;;;;;;
2022/08/15 12:27:01;;;;;;;7.25;4.85;;;;;;;24.94;100.00;99238.59;1861614;75;21083;-76
2022/08/15 12:29:28;;;;;;;9.53;4.00;;;;;;;25.29;100.00;99243.23;1845090;77;21084;-76
2022/08/15 12:34:32;;;;;;;9.58;4.87;;;;;;;25.60;100.00;99253.41;1856074;76;21084;-76
2022/08/15 12:37:15;;;;;;;;;;;;;;;;;;;;;
2022/08/15 12:39:35;;;;;;;7.85;5.17;;;;;;;26.06;100.00;99254.91;1831537;77;21063;-76
2022/08/15 12:45:07;;;;;;;;;;;;;;;;;;;;;
2022/08/15 12:47:31;;;;;;;8.95;5.20;;;;;;;25.91;100.00;99266.23;1898541;75;21077;-76
2022/08/15 12:50:14;;;;;;;10.72;4.62;;;;;;;25.34;100.00;99272.13;1891573;74;21042;-76
2022/08/15 12:53:10;;;;;;;;;;;;;;;;;;;;;
2022/08/15 13:30:30;;;;;;;11.43;4.92;;;;;;;25.25;100.00;99190.11;1797783;76;21192;-76
2022/08/15 13:33:14;;;;;;;;;;;;;;;;;;;;;
2022/08/15 13:35:53;;;;;;;13.28;5.00;;;;;;;24.90;100.00;99164.95;1696389;83;21125;-76
2022/08/15 13:38:27;;;;;;;;;;;;;;;;;;;;;
2022/08/15 13:41:02;;;;;;;;;;;;;;;;;;;;;
2022/08/15 13:43:35;;;;;;;;;;;;;;;;;;;;;
2022/08/15 13:45:56;;;;;;;10.75;5.17;;;;;;;24.89;100.00;99206.63;1784269;78;21084;-76
2022/08/15 13:48:35;;;;;;;8.88;5.65;;;;;;;25.03;100.00;99217.32;1846675;76;21146;-76
2022/08/15 13:51:30;;;;;;;;;;;;;;;;;;;;;
2022/08/15 14:00:00;;;;;;;;;;;;;;;;;;;;;
2022/08/15 14:02:41;;;;;;;;;;;;;;;;;;;;;
2022/08/15 14:08:48;;;;;;;;;;;;;;;;;;;;;
2022/08/15 14:14:11;;;;;;;;;;;;;;;;;;;;;
2022/08/15 14:19:34;;;;;;;7.87;5.22;;;;;;;24.15;100.00;99136.23;1560571;91;21126;-76
2022/08/15 14:28:16;;;;;;;;;;;;;;;;;;;;;
2022/08/15 14:36:14;;;;;;;;;;;;;;;;;;;;;
2022/08/15 14:38:49;;;;;;;;;;;;;;;;;;;;;
2022/08/15 14:41:51;;;;;;;;;;;;;;;;;;;;;
2022/08/15 14:44:22;;;;;;;;;;;;;;;;;;;;;
2022/08/15 14:47:01;;;;;;;;;;;;;;;;;;;;;
2022/08/15 14:55:34;;;;;;;;;;;;;;;;;;;;;
2022/08/15 14:58:09;;;;;;;;;;;;;;;;;;;;;
2022/08/15 15:00:31;;;;;;;12.40;5.60;;;;;;;24.05;100.00;99148.37;1470773;93;21301;-76
2022/08/15 15:03:00;;;;;;;8.20;5.80;;;;;;;24.15;100.00;99132.30;1551703;88;21621;-76
2022/08/15 15:05:28;;;;;;;10.03;5.03;;;;;;;24.17;100.00;99133.50;1637785;86;21145;-76
2022/08/15 15:08:27;;;;;;;14.65;5.65;;;;;;;24.16;100.00;99126.59;1759141;80;21149;-76
2022/08/15 15:13:35;;;;;;;10.03;5.28;;;;;;;23.60;100.00;99119.89;1726833;81;21604;-76
2022/08/15 15:18:43;;;;;;;9.70;4.95;;;;;;;23.88;100.00;99101.20;1756574;78;21134;-76
2022/08/15 15:21:24;;;;;;;9.88;5.50;;;;;;;23.84;100.00;99120.25;1818197;77;21485;-76
2022/08/15 15:29:51;;;;;;;9.30;4.92;;;;;;;23.41;100.00;99120.02;1721847;81;21126;-77
2022/08/15 15:33:10;;;;;;;;;;;;;;;;;;;;;
2022/08/15 15:40:59;;;;;;;13.28;5.20;;;;;;;22.74;100.00;99041.13;1589713;89;21219;-77
2022/08/15 15:43:28;;;;;;;6.10;5.00;;;;;;;23.27;100.00;99070.41;1567046;90;21334;-76
2022/08/15 15:46:10;;;;;;;;;;;;;;;;;;;;;
2022/08/15 15:48:43;;;;;;;13.70;6.40;;;;;;;22.96;100.00;99062.25;1614751;85;21125;-76
2022/08/15 15:57:28;;;;;;;;;;;;;;;;;;;;;
2022/08/15 16:02:45;;;;;;;;;;;;;;;;;;;;;
2022/08/15 16:07:57;;;;;;;7.35;4.55;;;;;;;23.52;100.00;99060.69;1514238;91;21681;-76
2022/08/15 16:16:40;;;;;;;;;;;;;;;;;;;;;
2022/08/15 16:32:19;;;;;;;12.43;4.37;;;;;;;23.73;100.00;99077.84;1548494;84;21144;-76
2022/08/15 16:37:48;;;;;;;;;;;;;;;;;;;;;
2022/08/15 16:40:51;;;;;;;;;;;;;;;;;;;;;
2022/08/15 16:43:14;;;;;;;;;;;;;;;;;;;;;
2022/08/15 16:57:28;;;;;;;;;;;;;;;;;;;;;
2022/08/15 16:59:51;;;;;;;;;;;;;;;;;;;;;
2022/08/15 17:02:22;;;;;;;9.25;5.70;;;;;;;23.42;100.00;99055.32;1599123;88;21316;-76
2022/08/15 17:05:43;;;;;;;;;;;;;;;;;;;;;
2022/08/15 17:19:09;;;;;;;15.13;5.80;;;;;;;23.06;100.00;99021.34;1554761;89;21251;-77
2022/08/15 17:21:49;;;;;;;11.80;5.37;;;;;;;23.10;100.00;99028.47;1595197;88;21334;-76
2022/08/15 17:24:39;;;;;;;7.45;4.35;;;;;;;22.91;100.00;99032.02;1612577;87;21259;-76
2022/08/15 17:27:09;;;;;;;7.97;4.40;;;;;;;22.86;100.00;99021.53;1618547;87;21108;-77
2022/08/15 17:29:51;;;;;;;7.47;4.20;;;;;;;23.08;100.00;99016.80;1704203;83;21145;-76
2022/08/15 17:32:34;;;;;;;;;;;;;;;;;;;;;
2022/08/15 17:35:10;;;;;;;7.00;4.03;;;;;;;23.12;100.00;99043.11;1716389;83;21119;-76
2022/08/15 17:40:26;;;;;;;9.15;4.35;;;;;;;23.10;100.00;99045.50;1520352;94;21180;-76
2022/08/15 17:43:17;;;;;;;;;;;;;;;;;;;;;
2022/08/15 17:46:38;;;;;;;;;;;;;;;;;;;;;
2022/08/15 17:48:42;;;;;;;7.22;3.37;;;;;;;23.09;100.00;99038.14;1588736;87;21150;-77
2022/08/15 17:51:29;;;;;;;;;;;;;;;;;;;;;
2022/08/15 17:54:00;;;;;;;7.10;3.22;;;;;;;22.86;100.00;99037.23;1665747;83;21142;-77
2022/08/15 17:56:40;;;;;;;4.60;3.42;;;;;;;22.87;100.00;99027.96;1706101;83;21236;-77
2022/08/15 17:59:16;;;;;;;9.48;4.53;;;;;;;22.93;100.00;99030.59;1778036;80;21160;-78
2022/08/15 18:01:44;;;;;;;8.45;3.95;;;;;;;22.40;100.00;98993.41;1771356;76;21081;-77
2022/08/15 18:04:12;;;;;;;7.33;3.55;;;;;;;22.80;100.00;99045.08;1861252;77;21072;-77
2022/08/15 18:06:44;;;;;;;5.28;3.27;;;;;;;22.64;100.00;99065.84;1860464;76;21099;-77
2022/08/15 18:09:13;;;;;;;9.03;4.08;;;;;;;22.60;100.00;99067.02;1859529;77;21053;-76
2022/08/15 18:11:42;;;;;;;6.42;3.60;;;;;;;22.77;100.00;99071.02;1860417;76;21458;-77
2022/08/15 18:14:13;;;;;;;10.25;4.17;;;;;;;22.61;100.00;99079.64;1860521;77;21577;-77
2022/08/15 18:16:43;;;;;;;7.92;4.42;;;;;;;22.54;100.00;99075.30;1859258;77;21071;-77
2022/08/15 18:19:15;;;;;;;10.78;3.70;;;;;;;22.48;100.00;99078.36;1856473;76;21043;-77
2022/08/15 18:21:51;;;;;;;7.17;3.85;;;;;;;22.46;100.00;99081.08;1837308;76;21117;-77
2022/08/15 18:24:36;;;;;;;10.08;4.03;;;;;;;22.53;100.00;99073.16;1875733;76;21568;-77
2022/08/15 18:27:07;;;;;;;8.20;3.90;;;;;;;22.49;100.00;99075.63;1840179;77;21162;-76
2022/08/15 18:29:43;;;;;;;8.65;3.17;;;;;;;22.70;100.00;99063.25;1868156;76;21049;-76
2022/08/15 18:32:08;;;;;;;11.25;3.37;;;;;;;22.66;100.00;99073.13;1875390;75;21132;-77
2022/08/15 18:34:45;;;;;;;10.65;4.08;;;;;;;22.66;100.00;99076.20;1852301;75;21568;-77
2022/08/15 18:37:21;;;;;;;8.20;3.58;;;;;;;22.65;100.00;99079.31;1870675;75;21110;-77
2022/08/15 18:42:51;;;;;;;5.70;3.50;;;;;;;22.82;100.00;99081.16;1858010;75;21089;-77
2022/08/15 18:45:42;;;;;;;7.92;4.45;;;;;;;22.81;100.00;99063.78;1870072;75;21091;-76
2022/08/15 18:48:18;;;;;;;8.43;3.25;;;;;;;22.91;100.00;99063.93;1883241;75;21498;-77
2022/08/15 18:50:57;;;;;;;6.17;3.30;;;;;;;22.86;100.00;99085.21;1866688;75;21087;-77
2022/08/15 18:53:29;;;;;;;4.95;3.40;;;;;;;22.72;100.00;99095.86;1849168;76;21248;-77
2022/08/15 18:55:59;;;;;;;6.65;3.42;;;;;;;22.78;100.00;99094.11;1856628;75;21568;-77
2022/08/15 18:58:31;;;;;;;5.80;2.80;;;;;;;22.79;100.00;99098.39;1866412;75;21040;-77
2022/08/15 19:01:07;;;;;;;5.78;2.92;;;;;;;22.82;100.00;99106.02;1872991;75;21142;-77
2022/08/15 19:03:37;;;;;;;7.45;3.65;;;;;;;22.77;100.00;99114.20;1882113;74;21130;-77
2022/08/15 19:06:13;;;;;;;6.10;2.95;;;;;;;22.78;100.00;99117.67;1874603;76;21107;-76
2022/08/15 19:08:44;;;;;;;8.15;3.27;;;;;;;22.74;100.00;99101.83;1875425;75;21422;-77
2022/08/15 19:11:15;;;;;;;6.25;2.72;;;;;;;22.71;100.00;99107.28;1873039;75;21493;-77
2022/08/15 19:13:46;;;;;;;6.85;3.20;;;;;;;22.58;100.00;99108.65;1846082;76;21543;-77
2022/08/15 19:16:17;;;;;;;5.78;3.35;;;;;;;22.64;100.00;99109.03;1872727;75;21046;-77
2022/08/15 19:18:56;;;;;;;9.10;3.62;;;;;;;22.64;100.00;99110.34;1866383;75;21084;-77
2022/08/15 19:21:24;;;;;;;11.78;4.20;;;;;;;22.58;100.00;99116.04;1883478;75;21132;-76
2022/08/15 19:23:55;;;;;;;8.05;3.35;;;;;;;22.49;100.00;99132.35;1891962;75;21036;-76
2022/08/15 19:26:41;;;;;;;6.72;3.92;;;;;;;22.47;100.00;99131.64;1895007;75;21077;-76
2022/08/15 19:29:24;;;;;;;6.70;3.33;;;;;;;22.42;100.00;99122.34;1893618;75;21098;-76
2022/08/15 19:32:03;;;;;;;10.53;3.42;;;;;;;22.24;100.00;99114.04;1894053;75;21059;-77
2022/08/15 19:34:51;;;;;;;5.87;3.20;;;;;;;22.24;100.00;99114.04;1892908;75;21024;-76
2022/08/15 19:37:24;;;;;;;5.72;3.33;;;;;;;22.35;100.00;99104.56;1893008;75;21028;-76
2022/08/15 19:40:01;;;;;;;5.12;3.60;;;;;;;22.35;100.00;99104.56;1881913;76;21022;-77
2022/08/15 19:42:34;;;;;;;6.67;3.50;;;;;;;22.30;100.00;99095.77;1892000;75;21520;-77
2022/08/15 19:45:16;;;;;;;7.92;3.10;;;;;;;22.34;100.00;99075.44;1893300;75;21050;-77
2022/08/15 19:47:50;;;;;;;5.00;3.20;;;;;;;22.36;100.00;99039.55;1853360;76;21035;-77
2022/08/15 19:53:11;;;;;;;8.38;3.47;;;;;;;22.45;100.00;99020.55;1884157;75;21166;-77
2022/08/15 19:55:45;;;;;;;5.92;2.85;;;;;;;22.50;100.00;99012.38;1886751;75;21014;-76
2022/08/15 19:58:30;;;;;;;7.22;4.40;;;;;;;22.44;100.00;99013.66;1882373;75;21094;-76
2022/08/15 20:01:01;;;;;;;6.65;2.70;;;;;;;22.29;100.00;98992.08;1893632;76;21070;-76
2022/08/15 20:03:31;;;;;;;6.65;3.10;;;;;;;22.16;100.00;98991.65;1861006;76;21079;-76
2022/08/15 20:06:05;;;;;;;4.05;2.55;;;;;;;22.20;100.00;98989.66;1861865;76;21054;-76
2022/08/15 20:08:52;;;;;;;6.58;3.15;;;;;;;22.20;100.00;98999.27;1883367;75;21032;-76
2022/08/15 20:11:29;;;;;;;5.55;3.12;;;;;;;22.02;100.00;99014.88;1875392;75;21095;-76
2022/08/15 20:14:02;;;;;;;7.35;3.33;;;;;;;21.92;100.00;99002.13;1857246;75;21103;-77
2022/08/15 20:16:44;;;;;;;5.60;2.77;;;;;;;21.99;100.00;98998.12;1852352;75;21047;-77
2022/08/15 20:19:42;;;;;;;6.35;3.17;;;;;;;21.94;100.00;99018.52;1886364;76;21039;-77
2022/08/15 20:22:19;;;;;;;7.47;3.20;;;;;;;21.85;100.00;99013.50;1860070;75;21660;-76
2022/08/15 20:24:52;;;;;;;6.95;3.95;;;;;;;21.80;100.00;99009.53;1882380;75;21037;-77
2022/08/15 20:27:27;;;;;;;5.95;3.35;;;;;;;21.80;100.00;99015.58;1865333;76;21136;-77
2022/08/15 20:30:11;;;;;;;5.25;3.40;;;;;;;21.84;100.00;98972.59;1859779;76;21101;-77
2022/08/15 20:32:41;;;;;;;6.75;3.50;;;;;;;21.84;100.00;98972.59;1880111;75;21111;-78
2022/08/15 20:35:27;;;;;;;3.95;3.37;;;;;;;22.01;100.00;98993.60;1882869;76;21121;-78
2022/08/15 20:38:03;;;;;;;6.05;3.45;;;;;;;21.95;100.00;99011.52;1874800;76;21100;-78
2022/08/15 20:40:32;;;;;;;6.17;3.37;;;;;;;21.81;100.00;99015.97;1867614;75;21143;-77
2022/08/15 20:43:06;;;;;;;6.28;3.02;;;;;;;21.73;100.00;99012.57;1879600;75;21498;-77
2022/08/15 20:45:33;;;;;;;7.42;4.05;;;;;;;21.77;100.00;98994.91;1869660;76;21466;-78
2022/08/15 20:48:08;;;;;;;18.20;6.17;;;;;;;21.77;100.00;98994.91;1879305;76;21040;-77
2022/08/15 20:50:38;;;;;;;7.92;3.85;;;;;;;21.76;100.00;98987.99;1855374;75;21083;-79
2022/08/15 20:53:06;;;;;;;7.60;4.03;;;;;;;21.65;100.00;98976.51;1854380;76;21066;-78
2022/08/15 20:55:36;;;;;;;5.85;3.30;;;;;;;21.65;100.00;98976.51;1874371;75;21023;-78
2022/08/15 20:58:10;;;;;;;6.00;3.33;;;;;;;21.66;100.00;98986.47;1871593;75;21025;-78
2022/08/15 21:00:55;;;;;;;;;;;;;;;21.78;100.00;98997.88;1872614;76;21026;-79
2022/08/15 21:03:23;;;;;;;5.60;3.27;;;;;;;21.77;100.00;99002.75;1851718;76;20145;-78
2022/08/15 21:05:56;;;;;;;6.50;3.27;;;;;;;21.74;100.00;99010.31;1879428;76;21111;-79
2022/08/15 21:08:49;;;;;;;4.58;3.50;;;;;;;21.63;100.00;99016.77;1882932;75;21049;-78
2022/08/15 21:11:22;;;;;;;9.03;4.08;;;;;;;21.60;100.00;99016.97;1878074;76;21113;-79
2022/08/15 21:14:04;;;;;;;5.00;3.20;;;;;;;21.65;100.00;99000.03;1873702;76;21453;-79
2022/08/15 21:16:50;;;;;;;6.60;3.02;;;;;;;21.75;100.00;98988.94;1866764;75;21201;-79
2022/08/15 21:19:20;;;;;;;5.08;2.72;;;;;;;21.85;100.00;98991.28;1886340;76;21028;-79
2022/08/15 21:21:48;;;;;;;3.35;2.72;;;;;;;21.65;100.00;98997.88;1875061;74;21084;-79
2022/08/15 21:24:18;;;;;;;6.90;2.83;;;;;;;21.65;100.00;98998.72;1882346;76;20988;-79
2022/08/15 21:26:47;;;;;;;5.40;3.22;;;;;;;21.63;100.00;98986.22;1852967;76;21055;-79
2022/08/15 21:29:18;;;;;;;6.97;3.35;;;;;;;21.68;100.00;98980.68;1881637;76;21204;-79
2022/08/15 21:31:57;;;;;;;8.08;3.10;;;;;;;21.77;100.00;98973.51;1878995;76;21060;-79
2022/08/15 21:34:36;;;;;;;3.17;2.30;;;;;;;21.78;100.00;98970.44;1874950;75;21558;-79
2022/08/15 21:37:12;;;;;;;4.75;2.67;;;;;;;21.86;100.00;98972.48;1875458;75;21037;-79
2022/08/15 21:39:49;;;;;;;5.92;2.62;;;;;;;21.80;100.00;98982.09;1878824;76;21035;-79
2022/08/15 21:42:19;;;;;;;6.85;2.65;;;;;;;21.84;100.00;98983.05;1857556;76;21121;-79
2022/08/15 21:45:17;;;;;;;4.80;2.83;;;;;;;21.83;100.00;98973.55;1873728;75;21036;-79
2022/08/15 21:47:46;;;;;;;5.35;2.95;;;;;;;21.83;100.00;98951.78;1844792;76;21091;-79
2022/08/15 21:50:26;;;;;;;5.15;2.72;;;;;;;21.71;100.00;98963.48;1856645;76;21117;-79
2022/08/15 21:52:56;;;;;;;4.35;2.50;;;;;;;21.71;100.00;98963.48;1860421;76;21055;-78
2022/08/15 21:55:39;;;;;;;4.60;2.90;;;;;;;21.70;100.00;98967.02;1873384;76;21039;-78
2022/08/15 21:58:44;;;;;;;5.25;2.52;;;;;;;21.65;100.00;98970.44;1882561;76;21019;-78
2022/08/15 22:01:15;;;;;;;4.62;2.80;;;;;;;21.60;100.00;98952.47;1867049;76;22439;-78
2022/08/15 22:04:02;;;;;;;4.37;2.72;;;;;;;21.49;100.00;98943.27;1863474;76;21151;-78
2022/08/15 22:06:30;;;;;;;3.83;2.65;;;;;;;21.61;100.00;98935.02;1871399;75;21475;-78
2022/08/15 22:08:58;;;;;;;6.40;3.15;;;;;;;21.48;100.00;98930.67;1849990;77;21029;-78
2022/08/15 22:11:29;;;;;;;9.05;3.15;;;;;;;21.48;100.00;98920.22;1849763;76;21078;-78
2022/08/15 22:13:58;;;;;;;6.70;3.22;;;;;;;21.39;100.00;98905.22;1873054;75;21506;-79
2022/08/15 22:16:28;;;;;;;5.47;2.75;;;;;;;21.48;100.00;98920.22;1855634;75;21000;-78
2022/08/15 22:18:55;;;;;;;5.80;2.98;;;;;;;21.45;100.00;98919.62;1890516;76;21031;-78
2022/08/15 22:21:23;;;;;;;6.00;3.22;;;;;;;21.41;100.00;98909.84;1875356;76;21106;-78
2022/08/15 22:23:51;;;;;;;4.33;2.80;;;;;;;21.41;100.00;98909.84;1855516;76;21033;-78
2022/08/15 22:26:20;;;;;;;5.42;2.95;;;;;;;21.44;100.00;98900.48;1882425;76;21044;-80
2022/08/15 22:28:50;;;;;;;5.97;3.05;;;;;;;21.47;100.00;98888.98;1870004;76;21486;-80
2022/08/15 22:31:18;;;;;;;5.75;2.95;;;;;;;21.47;100.00;98888.98;1881715;76;21009;-80
2022/08/15 22:33:47;;;;;;;9.30;3.92;;;;;;;21.45;100.00;98878.63;1875739;76;21039;-79
2022/08/15 22:36:16;;;;;;;4.50;2.75;;;;;;;21.50;100.00;98870.48;1874749;75;21043;-79
2022/08/15 22:38:44;;;;;;;5.45;2.90;;;;;;;21.58;100.00;98852.92;1875369;76;21076;-79
2022/08/15 22:41:13;;;;;;;4.97;2.70;;;;;;;21.58;100.00;98849.00;1847230;75;21553;-79
2022/08/15 22:43:42;;;;;;;5.08;2.90;;;;;;;21.56;100.00;98841.77;1876363;76;21051;-79
2022/08/15 22:46:16;;;;;;;6.90;2.90;;;;;;;21.57;100.00;98840.36;1876552;76;21418;-79
2022/08/15 22:48:44;;;;;;;;;;;;;;;21.54;100.00;98840.57;1876214;75;21040;-79
2022/08/15 22:51:29;;;;;;;4.20;2.70;;;;;;;21.60;100.00;98828.84;1856229;76;20109;-79
2022/08/15 22:53:58;;;;;;;3.87;2.40;;;;;;;21.63;100.00;98818.17;1874687;74;21130;-79
2022/08/15 22:56:27;;;;;;;6.67;2.85;;;;;;;21.42;100.00;98818.77;1865180;76;21058;-79
2022/08/15 22:58:57;;;;;;;5.22;2.95;;;;;;;21.42;100.00;98818.77;1872140;76;21054;-79
2022/08/15 23:01:28;;;;;;;7.20;3.22;;;;;;;21.51;100.00;98827.72;1875157;76;21012;-79
2022/08/15 23:03:58;;;;;;;5.72;3.20;;;;;;;21.41;100.00;98831.48;1874330;74;21099;-79
2022/08/15 23:06:35;;;;;;;3.77;2.85;;;;;;;21.50;100.00;98831.29;1875657;75;21097;-79
2022/08/15 23:09:04;;;;;;;6.20;4.05;;;;;;;21.47;100.00;98827.13;1875054;76;21032;-79
2022/08/15 23:11:34;;;;;;;7.05;3.77;;;;;;;21.38;100.00;98818.63;1874189;75;21540;-79
2022/08/15 23:14:04;;;;;;;7.92;3.67;;;;;;;21.42;100.00;98821.38;1875248;76;21047;-79
2022/08/15 23:16:36;;;;;;;5.28;3.22;;;;;;;21.50;100.00;98819.05;1895220;75;21025;-79
2022/08/15 23:19:28;;;;;;;5.47;3.30;;;;;;;21.60;100.00;98812.67;1906813;74;21203;-79
2022/08/15 23:21:58;;;;;;;6.17;3.70;;;;;;;21.54;100.00;98826.20;1857175;75;21235;-78
2022/08/15 23:24:26;;;;;;;5.00;3.25;;;;;;;21.50;100.00;98824.27;1890530;76;21101;-80
2022/08/15 23:26:54;;;;;;;4.15;3.35;;;;;;;21.64;100.00;98820.64;1890110;76;21026;-79
2022/08/15 23:29:25;;;;;;;7.67;3.72;;;;;;;21.65;100.00;98826.25;1890600;76;20996;-79
2022/08/15 23:31:58;;;;;;;7.42;3.52;;;;;;;21.67;100.00;98828.76;1890047;76;21079;-79
2022/08/15 23:34:28;;;;;;;4.72;3.22;;;;;;;21.71;100.00;98831.97;1885333;75;21145;-79
2022/08/15 23:37:05;;;;;;;7.85;4.12;;;;;;;21.72;100.00;98832.32;1890345;76;21027;-79
2022/08/15 23:39:50;;;;;;;6.15;3.37;;;;;;;21.65;100.00;98836.70;1859470;76;21532;-79
2022/08/15 23:42:24;;;;;;;4.75;3.02;;;;;;;21.62;100.00;98837.39;1890195;75;21130;-79
2022/08/15 23:44:52;;;;;;;7.55;3.65;;;;;;;21.60;100.00;98842.72;1889588;76;21108;-80
2022/08/15 23:47:20;;;;;;;6.70;3.20;;;;;;;21.64;100.00;98836.81;1890617;76;21030;-79
2022/08/15 23:49:49;;;;;;;5.42;3.02;;;;;;;21.55;100.00;98830.47;1875321;76;21037;-80
2022/08/15 23:52:17;;;;;;;4.20;3.12;;;;;;;21.57;100.00;98810.77;1885372;76;21059;-80
2022/08/15 23:54:45;;;;;;;8.15;4.10;;;;;;;21.60;100.00;98799.61;1890082;76;21028;-79
2022/08/15 23:57:13;;;;;;;5.40;3.20;;;;;;;21.56;100.00;98793.44;1877042;76;21097;-78
2022/08/15 23:59:40;;;;;;;6.40;3.42;;;;;;;21.59;100.00;98795.83;1889852;76;21117;-79
